createdAt,value
2018-06-09T00:01:08.040Z,19.50
2018-06-09T00:03:36.547Z,19.50
2018-06-09T00:06:05.091Z,19.50
2018-06-09T00:08:33.667Z,19.40
2018-06-09T00:11:02.182Z,19.40
2018-06-09T00:13:30.660Z,19.40
2018-06-09T00:15:59.355Z,19.40
2018-06-09T00:20:56.059Z,19.30
2018-06-09T00:23:24.487Z,19.30
2018-06-09T00:25:52.978Z,19.30
2018-06-09T00:28:21.450Z,19.30
2018-06-09T00:30:49.995Z,19.20
2018-06-09T00:33:18.714Z,19.20
2018-06-09T00:35:47.188Z,19.20
2018-06-09T00:38:15.743Z,19.10
2018-06-09T00:40:44.378Z,19.10
2018-06-09T00:43:12.875Z,19.10
2018-06-09T00:45:41.438Z,19.10
2018-06-09T00:48:09.920Z,19.10
2018-06-09T00:50:38.525Z,19.10
2018-06-09T00:53:07.148Z,19.10
2018-06-09T00:55:35.636Z,19.00
2018-06-09T00:58:04.354Z,19.10
2018-06-09T01:00:32.834Z,19.00
2018-06-09T01:03:01.524Z,19.00
2018-06-09T01:05:30.279Z,19.00
2018-06-09T01:07:58.871Z,18.90
2018-06-09T01:10:27.560Z,18.90
2018-06-09T01:12:56.055Z,18.90
2018-06-09T01:15:24.582Z,18.90
2018-06-09T01:17:53.047Z,18.90
2018-06-09T01:20:21.783Z,18.90
2018-06-09T01:22:50.224Z,18.90
2018-06-09T01:25:18.938Z,18.80
2018-06-09T01:27:47.389Z,18.80
2018-06-09T01:30:15.912Z,18.80
2018-06-09T01:32:44.400Z,18.80
2018-06-09T01:35:12.883Z,18.80
2018-06-09T01:37:41.369Z,18.80
2018-06-09T01:40:09.859Z,18.80
2018-06-09T01:42:38.329Z,18.80
2018-06-09T01:45:06.839Z,18.80
2018-06-09T01:47:35.310Z,18.80
2018-06-09T01:50:04.040Z,18.70
2018-06-09T01:52:32.522Z,18.70
2018-06-09T01:55:00.988Z,18.70
2018-06-09T01:57:29.583Z,18.70
2018-06-09T01:59:58.126Z,18.70
2018-06-09T02:02:26.622Z,18.70
2018-06-09T02:04:55.319Z,18.70
2018-06-09T02:07:23.830Z,18.80
2018-06-09T02:09:52.366Z,18.70
2018-06-09T02:12:20.842Z,18.70
2018-06-09T02:14:49.559Z,18.70
2018-06-09T02:17:18.035Z,18.70
2018-06-09T02:19:46.667Z,18.70
2018-06-09T02:22:15.157Z,18.70
2018-06-09T02:24:43.623Z,18.70
2018-06-09T02:27:12.123Z,18.70
2018-06-09T02:29:40.615Z,18.70
2018-06-09T02:32:09.223Z,18.70
2018-06-09T02:34:37.726Z,18.60
2018-06-09T02:37:06.251Z,18.60
2018-06-09T02:39:34.802Z,18.60
2018-06-09T02:42:03.259Z,18.60
2018-06-09T02:44:31.755Z,18.50
2018-06-09T02:47:00.227Z,18.50
2018-06-09T02:49:28.737Z,18.50
2018-06-09T02:51:57.396Z,18.50
2018-06-09T02:54:26.100Z,18.50
2018-06-09T02:56:54.605Z,18.50
2018-06-09T02:59:23.091Z,18.40
2018-06-09T03:01:51.750Z,18.40
2018-06-09T03:04:20.236Z,18.40
2018-06-09T03:06:48.922Z,18.40
2018-06-09T03:09:17.386Z,18.40
2018-06-09T03:11:46.074Z,18.40
2018-06-09T03:14:14.560Z,18.40
2018-06-09T03:16:43.115Z,18.40
2018-06-09T03:19:11.660Z,18.40
2018-06-09T03:21:40.175Z,18.40
2018-06-09T03:24:08.823Z,18.30
2018-06-09T03:26:37.286Z,18.30
2018-06-09T03:29:05.806Z,18.30
2018-06-09T03:31:34.286Z,18.30
2018-06-09T03:34:02.793Z,18.30
2018-06-09T03:36:31.267Z,18.30
2018-06-09T03:38:59.951Z,18.30
2018-06-09T03:41:28.430Z,18.30
2018-06-09T03:43:56.999Z,18.30
2018-06-09T03:46:25.510Z,18.30
2018-06-09T03:48:53.978Z,18.30
2018-06-09T03:51:22.439Z,18.30
2018-06-09T03:53:50.969Z,18.30
2018-06-09T03:56:19.443Z,18.30
2018-06-09T03:58:47.932Z,18.20
2018-06-09T04:01:16.418Z,18.30
2018-06-09T04:03:44.903Z,18.30
2018-06-09T04:06:13.402Z,18.30
2018-06-09T04:08:41.920Z,18.30
2018-06-09T04:11:10.465Z,18.30
2018-06-09T04:13:39.194Z,18.30
2018-06-09T04:16:07.671Z,18.20
2018-06-09T04:18:36.275Z,18.20
2018-06-09T04:21:04.909Z,18.20
2018-06-09T04:23:33.414Z,18.20
2018-06-09T04:26:01.902Z,18.20
2018-06-09T04:28:30.579Z,18.20
2018-06-09T04:30:59.043Z,18.20
2018-06-09T04:33:27.544Z,18.20
2018-06-09T04:35:56.027Z,18.20
2018-06-09T04:38:24.526Z,18.20
2018-06-09T04:40:53.076Z,18.20
2018-06-09T04:43:21.571Z,18.20
2018-06-09T04:45:50.694Z,18.20
2018-06-09T04:48:19.195Z,18.20
2018-06-09T04:50:47.679Z,18.20
2018-06-09T04:53:16.322Z,18.20
2018-06-09T04:55:44.819Z,18.20
2018-06-09T04:58:13.526Z,18.20
2018-06-09T05:00:41.997Z,18.20
2018-06-09T05:03:10.651Z,18.20
2018-06-09T05:05:39.211Z,18.20
2018-06-09T05:08:07.711Z,18.20
2018-06-09T05:10:36.236Z,18.30
2018-06-09T05:13:04.858Z,18.30
2018-06-09T05:15:33.373Z,18.30
2018-06-09T05:18:01.864Z,18.30
2018-06-09T05:20:30.346Z,18.30
2018-06-09T05:22:58.834Z,18.40
2018-06-09T05:25:27.335Z,18.40
2018-06-09T05:27:55.791Z,18.40
2018-06-09T05:30:24.286Z,18.50
2018-06-09T05:32:52.788Z,18.50
2018-06-09T05:35:21.584Z,18.50
2018-06-09T05:37:50.146Z,18.50
2018-06-09T05:40:18.724Z,18.50
2018-06-09T05:42:47.327Z,18.60
2018-06-09T05:45:15.806Z,18.60
2018-06-09T05:47:44.490Z,18.60
2018-06-09T05:50:12.979Z,18.60
2018-06-09T05:52:41.443Z,18.60
2018-06-09T05:55:09.946Z,18.60
2018-06-09T05:57:38.400Z,18.60
2018-06-09T06:00:07.277Z,18.60
2018-06-09T06:02:35.782Z,18.70
2018-06-09T06:05:04.765Z,18.70
2018-06-09T06:07:33.295Z,18.70
2018-06-09T06:10:01.911Z,18.80
2018-06-09T06:12:30.419Z,18.80
2018-06-09T06:14:59.025Z,18.80
2018-06-09T06:17:27.622Z,18.80
2018-06-09T06:19:56.087Z,18.90
2018-06-09T06:22:24.635Z,18.90
2018-06-09T06:24:53.111Z,18.90
2018-06-09T06:27:21.839Z,18.90
2018-06-09T06:29:50.352Z,18.90
2018-06-09T06:32:19.220Z,19.00
2018-06-09T06:34:47.707Z,19.10
2018-06-09T06:37:16.211Z,19.10
2018-06-09T06:39:44.698Z,19.20
2018-06-09T06:42:13.359Z,19.20
2018-06-09T06:44:41.922Z,19.30
2018-06-09T06:47:10.463Z,19.40
2018-06-09T06:49:38.966Z,19.40
2018-06-09T06:52:07.431Z,19.50
2018-06-09T06:54:36.186Z,19.60
2018-06-09T06:57:04.800Z,19.70
2018-06-09T06:59:33.307Z,19.70
2018-06-09T07:02:01.872Z,19.80
2018-06-09T07:04:30.491Z,19.90
2018-06-09T07:06:58.976Z,19.90
2018-06-09T07:09:27.477Z,19.90
2018-06-09T07:11:56.182Z,19.90
2018-06-09T07:14:24.754Z,20.00
2018-06-09T07:16:53.242Z,20.00
2018-06-09T07:19:21.732Z,20.10
2018-06-09T07:21:50.267Z,20.10
2018-06-09T07:24:18.870Z,20.20
2018-06-09T07:26:47.406Z,20.20
2018-06-09T07:29:15.902Z,20.20
2018-06-09T07:34:12.556Z,20.30
2018-06-09T07:36:41.207Z,20.30
2018-06-09T07:39:09.655Z,20.40
2018-06-09T07:41:38.190Z,20.40
2018-06-09T07:44:06.699Z,20.40
2018-06-09T07:46:35.198Z,20.40
2018-06-09T07:49:03.687Z,20.40
2018-06-09T07:51:32.188Z,20.40
2018-06-09T07:54:00.694Z,20.50
2018-06-09T07:56:29.286Z,20.50
2018-06-09T07:58:57.819Z,20.60
2018-06-09T08:01:26.332Z,20.70
2018-06-09T08:03:54.800Z,20.70
2018-06-09T08:06:23.343Z,20.80
2018-06-09T08:08:51.946Z,20.70
2018-06-09T08:11:20.519Z,20.80
2018-06-09T08:13:49.089Z,20.90
2018-06-09T08:16:17.615Z,21.00
2018-06-09T08:18:46.095Z,21.10
2018-06-09T08:21:14.685Z,21.20
2018-06-09T08:23:43.488Z,21.30
2018-06-09T08:26:11.975Z,21.40
2018-06-09T08:28:40.604Z,21.40
2018-06-09T08:31:09.069Z,21.40
2018-06-09T08:33:37.618Z,21.50
2018-06-09T08:36:06.215Z,21.60
2018-06-09T08:38:34.775Z,21.60
2018-06-09T08:41:03.331Z,21.80
2018-06-09T08:43:31.857Z,21.80
2018-06-09T08:46:00.560Z,21.90
2018-06-09T08:48:29.056Z,21.90
2018-06-09T08:50:57.675Z,21.90
2018-06-09T08:53:26.157Z,22.00
2018-06-09T08:55:54.751Z,22.00
2018-06-09T08:58:23.310Z,22.00
2018-06-09T09:00:51.803Z,22.00
2018-06-09T09:03:20.531Z,22.00
2018-06-09T09:05:49.037Z,22.00
2018-06-09T09:08:17.586Z,22.00
2018-06-09T09:10:46.262Z,22.00
2018-06-09T09:13:14.800Z,22.00
2018-06-09T09:15:43.355Z,22.00
2018-06-09T09:18:11.915Z,21.90
2018-06-09T09:20:40.580Z,21.90
2018-06-09T09:23:09.132Z,22.00
2018-06-09T09:25:37.802Z,22.00
2018-06-09T09:28:06.282Z,22.10
2018-06-09T09:30:34.927Z,22.10
2018-06-09T09:33:03.470Z,22.10
2018-06-09T09:35:32.231Z,22.20
2018-06-09T09:38:00.789Z,22.30
2018-06-09T09:40:29.326Z,22.20
2018-06-09T09:42:57.912Z,22.30
2018-06-09T09:45:26.468Z,22.30
2018-06-09T09:47:54.931Z,22.40
2018-06-09T09:50:23.518Z,22.40
2018-06-09T09:52:52.086Z,22.40
2018-06-09T09:55:20.797Z,22.40
2018-06-09T09:58:02.767Z,22.40
2018-06-09T10:00:38.089Z,22.40
2018-06-09T10:03:06.834Z,22.50
2018-06-09T10:05:35.613Z,22.50
2018-06-09T10:08:04.170Z,22.50
2018-06-09T10:10:32.675Z,22.50
2018-06-09T10:13:01.655Z,22.50
2018-06-09T10:15:30.208Z,22.60
2018-06-09T10:17:58.684Z,22.70
2018-06-09T10:20:27.205Z,22.70
2018-06-09T10:22:55.808Z,22.70
2018-06-09T10:25:24.293Z,22.70
2018-06-09T10:27:52.977Z,22.80
2018-06-09T10:30:21.492Z,22.80
2018-06-09T10:32:50.025Z,22.80
2018-06-09T10:35:18.623Z,22.90
2018-06-09T10:37:47.139Z,22.90
2018-06-09T10:40:15.667Z,23.00
2018-06-09T10:42:44.252Z,23.00
2018-06-09T10:45:12.886Z,23.10
2018-06-09T10:47:41.381Z,23.10
2018-06-09T10:50:09.904Z,23.10
2018-06-09T10:52:38.570Z,23.10
2018-06-09T10:55:07.195Z,23.00
2018-06-09T10:57:35.785Z,23.10
2018-06-09T11:00:04.703Z,23.10
2018-06-09T11:02:33.278Z,23.00
2018-06-09T11:05:01.803Z,23.10
2018-06-09T11:07:30.386Z,23.20
2018-06-09T11:09:58.893Z,23.20
2018-06-09T11:12:27.507Z,23.30
2018-06-09T11:14:56.116Z,23.30
2018-06-09T11:17:24.739Z,23.30
2018-06-09T11:19:53.246Z,23.20
2018-06-09T11:22:21.791Z,23.30
2018-06-09T11:24:50.294Z,23.30
2018-06-09T11:27:18.927Z,23.40
2018-06-09T11:29:47.526Z,23.40
2018-06-09T11:32:16.126Z,23.50
2018-06-09T11:34:44.628Z,23.50
2018-06-09T11:37:13.103Z,23.40
2018-06-09T11:39:41.798Z,23.40
2018-06-09T11:42:10.348Z,23.50
2018-06-09T11:44:38.892Z,23.50
2018-06-09T11:47:07.569Z,23.50
2018-06-09T11:49:36.034Z,23.60
2018-06-09T11:52:04.540Z,23.70
2018-06-09T11:54:33.146Z,23.60
2018-06-09T11:57:01.712Z,23.60
2018-06-09T11:59:30.321Z,23.60
2018-06-09T12:01:58.867Z,23.70
2018-06-09T12:04:27.391Z,23.90
2018-06-09T12:06:55.925Z,23.90
2018-06-09T12:09:24.563Z,23.90
2018-06-09T12:11:53.160Z,23.90
2018-06-09T12:14:21.709Z,24.00
2018-06-09T12:16:50.831Z,23.80
2018-06-09T12:19:19.498Z,23.80
2018-06-09T12:21:48.046Z,24.00
2018-06-09T12:24:16.581Z,23.90
2018-06-09T12:26:45.090Z,23.80
2018-06-09T12:29:13.584Z,23.80
2018-06-09T12:31:42.279Z,23.80
2018-06-09T12:34:10.746Z,23.70
2018-06-09T12:36:39.337Z,23.90
2018-06-09T12:39:08.317Z,23.90
2018-06-09T12:41:36.959Z,23.90
2018-06-09T12:44:05.479Z,23.90
2018-06-09T12:46:33.982Z,23.80
2018-06-09T12:49:02.560Z,23.80
2018-06-09T12:51:31.158Z,23.80
2018-06-09T12:53:59.712Z,23.90
2018-06-09T12:56:28.203Z,23.90
2018-06-09T12:58:56.662Z,24.00
2018-06-09T13:01:25.158Z,24.00
2018-06-09T13:03:53.679Z,23.90
2018-06-09T13:06:22.170Z,24.20
2018-06-09T13:08:50.644Z,24.10
2018-06-09T13:11:19.177Z,24.10
2018-06-09T13:13:47.698Z,24.30
2018-06-09T13:16:16.296Z,24.10
2018-06-09T13:18:44.797Z,24.00
2018-06-09T13:21:13.363Z,24.00
2018-06-09T13:23:41.886Z,23.90
2018-06-09T13:26:10.388Z,24.00
2018-06-09T13:28:38.916Z,24.30
2018-06-09T13:31:07.521Z,24.30
2018-06-09T13:33:36.000Z,24.30
2018-06-09T13:36:04.663Z,24.20
2018-06-09T13:38:33.258Z,24.30
2018-06-09T13:41:01.752Z,24.30
2018-06-09T13:43:30.255Z,24.20
2018-06-09T13:45:58.760Z,24.20
2018-06-09T13:48:27.386Z,24.20
2018-06-09T13:50:55.992Z,24.10
2018-06-09T13:53:24.515Z,24.10
2018-06-09T13:55:52.994Z,24.10
2018-06-09T13:58:21.573Z,24.20
2018-06-09T14:00:50.251Z,24.20
2018-06-09T14:03:19.224Z,24.20
2018-06-09T14:05:48.170Z,24.00
2018-06-09T14:08:16.712Z,23.90
2018-06-09T14:10:45.358Z,23.90
2018-06-09T14:13:13.867Z,24.00
2018-06-09T14:15:42.563Z,24.00
2018-06-09T14:18:11.128Z,24.10
2018-06-09T14:20:39.706Z,24.10
2018-06-09T14:23:08.342Z,24.00
2018-06-09T14:25:37.002Z,24.00
2018-06-09T14:28:05.539Z,23.90
2018-06-09T14:30:34.083Z,24.00
2018-06-09T14:33:02.720Z,24.00
2018-06-09T14:35:31.219Z,23.90
2018-06-09T14:37:59.951Z,24.00
2018-06-09T14:40:28.623Z,23.90
2018-06-09T14:42:57.258Z,23.90
2018-06-09T14:45:25.919Z,23.90
2018-06-09T14:47:54.397Z,23.90
2018-06-09T14:50:23.052Z,23.90
2018-06-09T14:52:51.631Z,24.00
2018-06-09T14:55:20.547Z,24.00
2018-06-09T14:57:49.103Z,24.20
2018-06-09T15:00:17.621Z,24.20
2018-06-09T15:05:14.404Z,24.20
2018-06-09T15:07:43.164Z,24.20
2018-06-09T15:10:11.693Z,24.20
2018-06-09T15:12:40.206Z,24.10
2018-06-09T15:15:08.658Z,24.00
2018-06-09T15:17:37.252Z,24.10
2018-06-09T15:20:05.855Z,24.10
2018-06-09T15:22:34.373Z,24.00
2018-06-09T15:25:02.915Z,23.90
2018-06-09T15:27:31.432Z,23.80
2018-06-09T15:29:59.943Z,23.80
2018-06-09T15:32:28.507Z,23.80
2018-06-09T15:34:57.091Z,23.70
2018-06-09T15:37:25.594Z,23.50
2018-06-09T15:39:54.140Z,23.40
2018-06-09T15:42:22.650Z,23.40
2018-06-09T15:44:51.199Z,23.40
2018-06-09T15:47:19.699Z,23.20
2018-06-09T15:49:48.240Z,23.30
2018-06-09T15:54:45.270Z,23.30
2018-06-09T15:57:13.882Z,23.20
2018-06-09T15:59:42.403Z,23.20
2018-06-09T16:02:10.859Z,23.20
2018-06-09T16:04:39.398Z,23.20
2018-06-09T16:07:08.025Z,23.30
2018-06-09T16:09:36.568Z,23.40
2018-06-09T16:12:05.336Z,23.40
2018-06-09T16:14:34.634Z,23.40
2018-06-09T16:17:03.202Z,23.40
2018-06-09T16:19:31.828Z,23.40
2018-06-09T16:22:00.332Z,23.50
2018-06-09T16:24:28.952Z,23.50
2018-06-09T16:26:57.511Z,23.50
2018-06-09T16:29:26.188Z,23.50
2018-06-09T16:31:54.788Z,23.50
2018-06-09T16:34:23.443Z,23.50
2018-06-09T16:36:52.161Z,23.60
2018-06-09T16:39:20.647Z,23.60
2018-06-09T16:41:49.338Z,23.60
2018-06-09T16:44:17.847Z,23.60
2018-06-09T16:46:46.405Z,23.60
2018-06-09T16:49:14.900Z,23.60
2018-06-09T16:51:43.506Z,23.50
2018-06-09T16:54:12.035Z,23.30
2018-06-09T16:56:40.658Z,23.20
2018-06-09T16:59:09.189Z,23.10
2018-06-09T17:01:37.694Z,23.10
2018-06-09T17:04:06.252Z,23.10
2018-06-09T17:06:34.822Z,23.10
2018-06-09T17:09:03.682Z,23.10
2018-06-09T17:11:32.246Z,23.00
2018-06-09T17:14:00.914Z,23.00
2018-06-09T17:16:29.524Z,23.00
2018-06-09T17:18:58.064Z,23.00
2018-06-09T17:21:26.644Z,23.10
2018-06-09T17:23:55.277Z,23.10
2018-06-09T17:26:23.783Z,23.10
2018-06-09T17:28:52.314Z,23.10
2018-06-09T17:31:20.948Z,23.10
2018-06-09T17:33:49.482Z,23.10
2018-06-09T17:36:18.063Z,23.10
2018-06-09T17:38:46.671Z,23.00
2018-06-09T17:41:15.206Z,23.00
2018-06-09T17:43:43.766Z,23.00
2018-06-09T17:46:12.422Z,23.00
2018-06-09T17:48:40.988Z,22.90
2018-06-09T17:51:09.659Z,22.90
2018-06-09T17:53:38.123Z,22.80
2018-06-09T17:56:06.943Z,22.80
2018-06-09T17:58:35.528Z,22.80
2018-06-09T18:01:04.184Z,22.70
2018-06-09T18:03:33.015Z,22.70
2018-06-09T18:06:01.579Z,22.70
2018-06-09T18:08:31.141Z,22.70
2018-06-09T18:10:59.799Z,22.60
2018-06-09T18:13:28.318Z,22.60
2018-06-09T18:15:56.963Z,22.60
2018-06-09T18:18:25.655Z,22.60
2018-06-09T18:20:54.245Z,22.60
2018-06-09T18:23:22.867Z,22.60
2018-06-09T18:25:51.565Z,22.50
2018-06-09T18:28:20.080Z,22.50
2018-06-09T18:30:48.761Z,22.50
2018-06-09T18:33:17.342Z,22.50
2018-06-09T18:35:46.100Z,22.40
2018-06-09T18:38:14.714Z,22.40
2018-06-09T18:40:43.535Z,22.30
2018-06-09T18:43:12.047Z,22.30
2018-06-09T18:45:40.631Z,22.40
2018-06-09T18:48:09.144Z,22.30
2018-06-09T18:50:37.947Z,22.30
2018-06-09T18:53:06.614Z,22.30
2018-06-09T18:55:35.144Z,22.30
2018-06-09T18:58:03.752Z,22.30
2018-06-09T19:00:32.336Z,22.20
2018-06-09T19:03:01.157Z,22.20
2018-06-09T19:05:29.752Z,22.10
2018-06-09T19:07:58.323Z,22.10
2018-06-09T19:10:26.844Z,22.20
2018-06-09T19:12:55.468Z,22.10
2018-06-09T19:15:24.158Z,22.10
2018-06-09T19:17:52.665Z,22.10
2018-06-09T19:20:21.252Z,22.10
2018-06-09T19:22:49.821Z,22.10
2018-06-09T19:25:18.362Z,22.00
2018-06-09T19:27:46.875Z,22.00
2018-06-09T19:30:15.578Z,22.00
2018-06-09T19:32:44.096Z,22.00
2018-06-09T19:35:12.762Z,21.90
2018-06-09T19:37:41.395Z,21.90
2018-06-09T19:40:10.114Z,21.90
2018-06-09T19:42:38.637Z,21.80
2018-06-09T19:45:07.448Z,21.80
2018-06-09T19:47:36.052Z,21.70
2018-06-09T19:50:04.659Z,21.70
2018-06-09T19:52:33.231Z,21.70
2018-06-09T19:55:01.855Z,21.60
2018-06-09T19:57:30.456Z,21.60
2018-06-09T19:59:58.879Z,21.60
2018-06-09T20:02:27.419Z,21.60
2018-06-09T20:04:55.936Z,21.60
2018-06-09T20:07:24.614Z,21.60
2018-06-09T20:12:21.392Z,21.60
2018-06-09T20:14:49.938Z,21.60
2018-06-09T20:17:18.502Z,21.60
2018-06-09T20:19:47.312Z,21.60
2018-06-09T20:22:15.927Z,21.50
2018-06-09T20:24:44.542Z,21.50
2018-06-09T20:27:13.080Z,21.50
2018-06-09T20:29:41.644Z,21.50
2018-06-09T20:32:10.284Z,21.50
2018-06-09T20:34:38.950Z,21.50
2018-06-09T20:37:07.609Z,21.40
2018-06-09T20:39:36.330Z,21.40
2018-06-09T20:42:04.950Z,21.40
2018-06-09T20:44:33.568Z,21.40
2018-06-09T20:47:02.054Z,21.30
2018-06-09T20:49:30.627Z,21.30
2018-06-09T20:51:59.288Z,21.30
2018-06-09T20:54:27.868Z,21.30
2018-06-09T20:56:56.366Z,21.30
2018-06-09T20:59:24.919Z,21.30
2018-06-09T21:01:53.552Z,21.20
2018-06-09T21:04:22.159Z,21.20
2018-06-09T21:06:50.913Z,21.20
2018-06-09T21:09:19.433Z,21.20
2018-06-09T21:11:48.004Z,21.20
2018-06-09T21:14:16.543Z,21.20
2018-06-09T21:16:45.057Z,21.10
2018-06-09T21:19:14.532Z,21.10
2018-06-09T21:21:43.119Z,21.10
2018-06-09T21:24:11.701Z,21.10
2018-06-09T21:29:18.211Z,21.10
2018-06-09T21:31:46.710Z,21.10
2018-06-09T21:34:32.585Z,21.10
2018-06-09T21:37:06.502Z,21.10
2018-06-09T21:39:40.372Z,21.10
2018-06-09T21:42:14.147Z,21.10
2018-06-09T21:44:47.562Z,21.10
2018-06-09T21:47:16.538Z,21.10
2018-06-09T21:49:45.021Z,21.10
2018-06-09T21:52:13.723Z,21.10
2018-06-09T21:57:10.706Z,21.10
2018-06-09T21:59:39.203Z,21.10
2018-06-09T22:02:07.825Z,21.00
2018-06-09T22:04:36.402Z,21.00
2018-06-09T22:07:04.967Z,20.90
2018-06-09T22:09:33.578Z,20.80
2018-06-09T22:12:02.174Z,20.80
2018-06-09T22:14:30.696Z,20.80
2018-06-09T22:16:59.335Z,20.80
2018-06-09T22:19:28.094Z,20.70
2018-06-09T22:21:56.563Z,20.80
2018-06-09T22:24:25.130Z,20.70
2018-06-09T22:26:53.692Z,20.70
2018-06-09T22:29:22.214Z,20.60
2018-06-09T22:31:50.694Z,20.60
2018-06-09T22:34:19.635Z,20.70
2018-06-09T22:36:48.291Z,20.70
2018-06-09T22:39:16.939Z,20.70
2018-06-09T22:41:45.719Z,20.60
2018-06-09T22:44:14.368Z,20.70
2018-06-09T22:46:42.906Z,20.60
2018-06-09T22:49:11.410Z,20.60
2018-06-09T22:51:39.958Z,20.60
2018-06-09T22:54:08.430Z,20.60
2018-06-09T22:56:36.903Z,20.60
2018-06-09T22:59:05.408Z,20.60
2018-06-09T23:01:34.014Z,20.60
2018-06-09T23:04:02.534Z,20.60
2018-06-09T23:06:31.040Z,20.60
2018-06-09T23:08:59.567Z,20.50
2018-06-09T23:13:56.351Z,20.50
2018-06-09T23:16:24.831Z,20.50
2018-06-09T23:18:53.431Z,20.50
2018-06-09T23:21:21.911Z,20.40
2018-06-09T23:23:50.455Z,20.40
2018-06-09T23:26:19.100Z,20.40
2018-06-09T23:28:47.767Z,20.40
2018-06-09T23:31:16.359Z,20.40
2018-06-09T23:33:44.846Z,20.40
2018-06-09T23:36:13.323Z,20.40
2018-06-09T23:38:41.926Z,20.40
2018-06-09T23:41:10.397Z,20.40
2018-06-09T23:43:39.003Z,20.40
2018-06-09T23:46:07.472Z,20.40
2018-06-09T23:48:35.948Z,20.40
2018-06-09T23:51:04.447Z,20.40
2018-06-09T23:53:32.959Z,20.40
2018-06-09T23:56:01.444Z,20.40
2018-06-09T23:58:30.071Z,20.40
